sensor_id;sensor_type;location;lat;lon;timestamp;P1;durP1;ratioP1;P2;durP2;ratioP2
17812;SDS011;9030;50.792;8.320;2023-06-14T00:02:21;12.77;;;7.40;;
17812;SDS011;9030;50.792;8.320;2023-06-14T00:04:48;11.95;;;7.82;;
17812;SDS011;9030;50.792;8.320;2023-06-14T00:07:17;13.35;;;8.40;;
17812;SDS011;9030;50.792;8.320;2023-06-14T00:09:44;12.80;;;7.07;;
17812;SDS011;9030;50.792;8.320;2023-06-14T00:12:12;14.25;;;7.97;;
17812;SDS011;9030;50.792;8.320;2023-06-14T00:14:38;10.50;;;7.75;;
17812;SDS011;9030;50.792;8.320;2023-06-14T00:17:05;11.40;;;7.85;;
17812;SDS011;9030;50.792;8.320;2023-06-14T00:19:32;13.15;;;8.38;;
17812;SDS011;9030;50.792;8.320;2023-06-14T00:22:00;13.38;;;7.78;;
17812;SDS011;9030;50.792;8.320;2023-06-14T00:24:28;10.73;;;7.00;;
17812;SDS011;9030;50.792;8.320;2023-06-14T00:26:54;12.32;;;7.13;;
17812;SDS011;9030;50.792;8.320;2023-06-14T00:29:22;12.75;;;7.03;;
17812;SDS011;9030;50.792;8.320;2023-06-14T00:31:49;12.52;;;7.53;;
17812;SDS011;9030;50.792;8.320;2023-06-14T00:34:16;13.18;;;7.80;;
17812;SDS011;9030;50.792;8.320;2023-06-14T00:36:42;11.13;;;7.10;;
17812;SDS011;9030;50.792;8.320;2023-06-14T00:39:09;14.10;;;6.82;;
17812;SDS011;9030;50.792;8.320;2023-06-14T00:41:36;11.98;;;6.90;;
17812;SDS011;9030;50.792;8.320;2023-06-14T00:44:04;11.65;;;7.70;;
17812;SDS011;9030;50.792;8.320;2023-06-14T00:46:32;14.25;;;7.13;;
17812;SDS011;9030;50.792;8.320;2023-06-14T00:48:58;10.88;;;6.40;;
17812;SDS011;9030;50.792;8.320;2023-06-14T00:51:27;13.45;;;6.75;;
17812;SDS011;9030;50.792;8.320;2023-06-14T00:53:54;14.98;;;7.68;;
17812;SDS011;9030;50.792;8.320;2023-06-14T00:56:21;15.40;;;7.65;;
17812;SDS011;9030;50.792;8.320;2023-06-14T00:58:48;13.38;;;7.53;;
17812;SDS011;9030;50.792;8.320;2023-06-14T01:01:15;28.02;;;7.60;;
17812;SDS011;9030;50.792;8.320;2023-06-14T01:03:43;13.05;;;6.40;;
17812;SDS011;9030;50.792;8.320;2023-06-14T01:06:13;16.40;;;7.18;;
17812;SDS011;9030;50.792;8.320;2023-06-14T01:09:03;13.27;;;6.97;;
17812;SDS011;9030;50.792;8.320;2023-06-14T01:11:37;12.05;;;6.53;;
17812;SDS011;9030;50.792;8.320;2023-06-14T01:14:20;12.68;;;6.60;;
17812;SDS011;9030;50.792;8.320;2023-06-14T01:16:47;13.48;;;7.32;;
17812;SDS011;9030;50.792;8.320;2023-06-14T01:19:19;9.02;;;5.60;;
17812;SDS011;9030;50.792;8.320;2023-06-14T01:21:50;10.65;;;6.40;;
17812;SDS011;9030;50.792;8.320;2023-06-14T01:24:19;11.13;;;6.47;;
17812;SDS011;9030;50.792;8.320;2023-06-14T01:26:50;11.68;;;6.10;;
17812;SDS011;9030;50.792;8.320;2023-06-14T01:29:20;9.85;;;5.70;;
17812;SDS011;9030;50.792;8.320;2023-06-14T01:31:50;16.23;;;6.70;;
17812;SDS011;9030;50.792;8.320;2023-06-14T01:34:16;14.32;;;6.22;;
17812;SDS011;9030;50.792;8.320;2023-06-14T01:36:43;14.30;;;6.30;;
17812;SDS011;9030;50.792;8.320;2023-06-14T01:39:11;11.82;;;5.95;;
17812;SDS011;9030;50.792;8.320;2023-06-14T01:41:42;13.27;;;6.72;;
17812;SDS011;9030;50.792;8.320;2023-06-14T01:44:11;13.27;;;6.20;;
17812;SDS011;9030;50.792;8.320;2023-06-14T01:46:40;10.88;;;6.35;;
17812;SDS011;9030;50.792;8.320;2023-06-14T01:49:07;10.43;;;5.93;;
17812;SDS011;9030;50.792;8.320;2023-06-14T01:51:34;9.90;;;6.45;;
17812;SDS011;9030;50.792;8.320;2023-06-14T01:54:01;12.05;;;7.65;;
17812;SDS011;9030;50.792;8.320;2023-06-14T01:56:28;13.45;;;6.38;;
17812;SDS011;9030;50.792;8.320;2023-06-14T01:58:56;11.18;;;6.63;;
17812;SDS011;9030;50.792;8.320;2023-06-14T02:01:23;15.60;;;5.93;;
17812;SDS011;9030;50.792;8.320;2023-06-14T02:03:50;15.30;;;6.55;;
17812;SDS011;9030;50.792;8.320;2023-06-14T02:06:16;8.68;;;5.43;;
17812;SDS011;9030;50.792;8.320;2023-06-14T02:08:43;13.75;;;6.18;;
17812;SDS011;9030;50.792;8.320;2023-06-14T02:11:09;10.63;;;6.38;;
17812;SDS011;9030;50.792;8.320;2023-06-14T02:13:36;13.65;;;5.85;;
17812;SDS011;9030;50.792;8.320;2023-06-14T02:16:04;14.25;;;5.70;;
17812;SDS011;9030;50.792;8.320;2023-06-14T02:18:33;12.75;;;6.00;;
17812;SDS011;9030;50.792;8.320;2023-06-14T02:20:59;12.85;;;5.85;;
17812;SDS011;9030;50.792;8.320;2023-06-14T02:23:26;14.02;;;6.22;;
17812;SDS011;9030;50.792;8.320;2023-06-14T02:25:53;12.48;;;6.07;;
17812;SDS011;9030;50.792;8.320;2023-06-14T02:28:20;12.32;;;6.40;;
17812;SDS011;9030;50.792;8.320;2023-06-14T02:30:47;10.10;;;6.18;;
17812;SDS011;9030;50.792;8.320;2023-06-14T02:33:15;13.30;;;6.07;;
17812;SDS011;9030;50.792;8.320;2023-06-14T02:35:42;10.52;;;6.13;;
17812;SDS011;9030;50.792;8.320;2023-06-14T02:38:09;17.45;;;5.68;;
17812;SDS011;9030;50.792;8.320;2023-06-14T02:40:36;13.35;;;6.25;;
17812;SDS011;9030;50.792;8.320;2023-06-14T02:43:03;11.90;;;6.18;;
17812;SDS011;9030;50.792;8.320;2023-06-14T02:45:29;10.52;;;5.50;;
17812;SDS011;9030;50.792;8.320;2023-06-14T02:47:56;11.45;;;6.82;;
17812;SDS011;9030;50.792;8.320;2023-06-14T02:50:24;12.13;;;6.10;;
17812;SDS011;9030;50.792;8.320;2023-06-14T02:52:53;11.23;;;6.20;;
17812;SDS011;9030;50.792;8.320;2023-06-14T02:55:20;12.45;;;6.45;;
17812;SDS011;9030;50.792;8.320;2023-06-14T02:57:47;12.88;;;6.78;;
17812;SDS011;9030;50.792;8.320;2023-06-14T03:00:14;10.80;;;5.80;;
17812;SDS011;9030;50.792;8.320;2023-06-14T03:02:41;11.25;;;6.78;;
17812;SDS011;9030;50.792;8.320;2023-06-14T03:05:09;11.50;;;6.15;;
17812;SDS011;9030;50.792;8.320;2023-06-14T03:07:37;12.63;;;6.97;;
17812;SDS011;9030;50.792;8.320;2023-06-14T03:10:06;9.95;;;6.40;;
17812;SDS011;9030;50.792;8.320;2023-06-14T03:12:34;10.98;;;6.38;;
17812;SDS011;9030;50.792;8.320;2023-06-14T03:15:01;11.15;;;7.30;;
17812;SDS011;9030;50.792;8.320;2023-06-14T03:17:28;11.18;;;5.90;;
17812;SDS011;9030;50.792;8.320;2023-06-14T03:19:58;11.15;;;6.43;;
17812;SDS011;9030;50.792;8.320;2023-06-14T03:22:25;11.93;;;6.45;;
17812;SDS011;9030;50.792;8.320;2023-06-14T03:24:53;11.18;;;6.28;;
17812;SDS011;9030;50.792;8.320;2023-06-14T03:27:20;9.45;;;6.32;;
17812;SDS011;9030;50.792;8.320;2023-06-14T03:29:46;11.23;;;5.85;;
17812;SDS011;9030;50.792;8.320;2023-06-14T03:32:13;10.75;;;6.00;;
17812;SDS011;9030;50.792;8.320;2023-06-14T03:34:39;12.23;;;6.20;;
17812;SDS011;9030;50.792;8.320;2023-06-14T03:37:06;12.75;;;6.32;;
17812;SDS011;9030;50.792;8.320;2023-06-14T03:39:33;10.85;;;6.00;;
17812;SDS011;9030;50.792;8.320;2023-06-14T03:42:01;11.13;;;6.78;;
17812;SDS011;9030;50.792;8.320;2023-06-14T03:44:27;8.77;;;5.70;;
17812;SDS011;9030;50.792;8.320;2023-06-14T03:46:54;11.00;;;6.20;;
17812;SDS011;9030;50.792;8.320;2023-06-14T03:49:21;10.65;;;6.82;;
17812;SDS011;9030;50.792;8.320;2023-06-14T03:51:48;15.80;;;7.82;;
17812;SDS011;9030;50.792;8.320;2023-06-14T03:54:16;14.20;;;7.00;;
17812;SDS011;9030;50.792;8.320;2023-06-14T03:56:42;11.65;;;5.85;;
17812;SDS011;9030;50.792;8.320;2023-06-14T03:59:12;13.98;;;7.03;;
17812;SDS011;9030;50.792;8.320;2023-06-14T04:01:38;9.13;;;6.20;;
17812;SDS011;9030;50.792;8.320;2023-06-14T04:04:11;14.10;;;7.45;;
17812;SDS011;9030;50.792;8.320;2023-06-14T04:06:38;13.00;;;6.05;;
17812;SDS011;9030;50.792;8.320;2023-06-14T04:09:05;11.18;;;6.85;;
17812;SDS011;9030;50.792;8.320;2023-06-14T04:11:32;14.65;;;6.50;;
17812;SDS011;9030;50.792;8.320;2023-06-14T04:13:58;11.20;;;5.72;;
17812;SDS011;9030;50.792;8.320;2023-06-14T04:16:28;15.52;;;6.90;;
17812;SDS011;9030;50.792;8.320;2023-06-14T04:18:54;10.18;;;6.22;;
17812;SDS011;9030;50.792;8.320;2023-06-14T04:21:23;11.88;;;6.95;;
17812;SDS011;9030;50.792;8.320;2023-06-14T04:23:50;9.88;;;5.60;;
17812;SDS011;9030;50.792;8.320;2023-06-14T04:26:19;11.15;;;6.35;;
17812;SDS011;9030;50.792;8.320;2023-06-14T04:28:48;12.68;;;6.00;;
17812;SDS011;9030;50.792;8.320;2023-06-14T04:31:15;12.18;;;5.88;;
17812;SDS011;9030;50.792;8.320;2023-06-14T04:33:43;14.25;;;6.80;;
17812;SDS011;9030;50.792;8.320;2023-06-14T04:36:11;13.70;;;6.95;;
17812;SDS011;9030;50.792;8.320;2023-06-14T04:38:38;10.10;;;6.10;;
17812;SDS011;9030;50.792;8.320;2023-06-14T04:41:06;13.10;;;6.65;;
17812;SDS011;9030;50.792;8.320;2023-06-14T04:43:36;12.38;;;6.18;;
17812;SDS011;9030;50.792;8.320;2023-06-14T04:46:04;12.05;;;6.93;;
17812;SDS011;9030;50.792;8.320;2023-06-14T04:48:35;11.45;;;6.25;;
17812;SDS011;9030;50.792;8.320;2023-06-14T04:51:05;10.50;;;6.00;;
17812;SDS011;9030;50.792;8.320;2023-06-14T04:53:32;8.75;;;6.00;;
17812;SDS011;9030;50.792;8.320;2023-06-14T04:55:59;12.68;;;5.40;;
17812;SDS011;9030;50.792;8.320;2023-06-14T04:58:26;8.57;;;5.22;;
17812;SDS011;9030;50.792;8.320;2023-06-14T05:00:53;12.50;;;6.43;;
17812;SDS011;9030;50.792;8.320;2023-06-14T05:03:21;12.52;;;6.60;;
17812;SDS011;9030;50.792;8.320;2023-06-14T05:05:48;8.93;;;5.22;;
17812;SDS011;9030;50.792;8.320;2023-06-14T05:08:16;9.00;;;5.53;;
17812;SDS011;9030;50.792;8.320;2023-06-14T05:10:43;10.15;;;5.88;;
17812;SDS011;9030;50.792;8.320;2023-06-14T05:13:10;9.63;;;5.22;;
17812;SDS011;9030;50.792;8.320;2023-06-14T05:15:36;11.13;;;5.85;;
17812;SDS011;9030;50.792;8.320;2023-06-14T05:18:03;8.63;;;5.35;;
17812;SDS011;9030;50.792;8.320;2023-06-14T05:20:30;9.07;;;5.00;;
17812;SDS011;9030;50.792;8.320;2023-06-14T05:22:57;11.52;;;5.82;;
17812;SDS011;9030;50.792;8.320;2023-06-14T05:25:24;8.38;;;4.75;;
17812;SDS011;9030;50.792;8.320;2023-06-14T05:27:53;12.88;;;5.97;;
17812;SDS011;9030;50.792;8.320;2023-06-14T05:30:19;8.23;;;4.32;;
17812;SDS011;9030;50.792;8.320;2023-06-14T05:32:46;11.50;;;5.97;;
17812;SDS011;9030;50.792;8.320;2023-06-14T05:35:13;12.13;;;5.65;;
17812;SDS011;9030;50.792;8.320;2023-06-14T05:37:39;9.95;;;5.07;;
17812;SDS011;9030;50.792;8.320;2023-06-14T05:40:06;13.10;;;5.20;;
17812;SDS011;9030;50.792;8.320;2023-06-14T05:42:35;11.48;;;5.63;;
17812;SDS011;9030;50.792;8.320;2023-06-14T05:45:02;11.60;;;4.97;;
17812;SDS011;9030;50.792;8.320;2023-06-14T05:47:31;12.65;;;5.80;;
17812;SDS011;9030;50.792;8.320;2023-06-14T05:49:57;8.20;;;5.18;;
17812;SDS011;9030;50.792;8.320;2023-06-14T05:52:24;10.50;;;4.97;;
17812;SDS011;9030;50.792;8.320;2023-06-14T05:54:51;10.68;;;5.20;;
17812;SDS011;9030;50.792;8.320;2023-06-14T05:57:18;9.00;;;4.78;;
17812;SDS011;9030;50.792;8.320;2023-06-14T05:59:46;10.43;;;4.90;;
17812;SDS011;9030;50.792;8.320;2023-06-14T06:02:12;11.38;;;4.95;;
17812;SDS011;9030;50.792;8.320;2023-06-14T06:04:39;8.00;;;4.68;;
17812;SDS011;9030;50.792;8.320;2023-06-14T06:07:06;12.43;;;5.78;;
17812;SDS011;9030;50.792;8.320;2023-06-14T06:09:33;11.30;;;5.75;;
17812;SDS011;9030;50.792;8.320;2023-06-14T06:11:59;14.80;;;4.93;;
17812;SDS011;9030;50.792;8.320;2023-06-14T06:14:26;10.20;;;5.05;;
17812;SDS011;9030;50.792;8.320;2023-06-14T06:16:54;10.80;;;4.70;;
17812;SDS011;9030;50.792;8.320;2023-06-14T06:19:21;9.45;;;4.97;;
17812;SDS011;9030;50.792;8.320;2023-06-14T06:21:47;13.38;;;5.03;;
17812;SDS011;9030;50.792;8.320;2023-06-14T06:24:14;9.45;;;4.43;;
17812;SDS011;9030;50.792;8.320;2023-06-14T06:26:41;10.85;;;4.88;;
17812;SDS011;9030;50.792;8.320;2023-06-14T06:29:08;12.40;;;4.90;;
17812;SDS011;9030;50.792;8.320;2023-06-14T06:31:35;13.65;;;5.35;;
17812;SDS011;9030;50.792;8.320;2023-06-14T06:34:03;7.05;;;3.92;;
17812;SDS011;9030;50.792;8.320;2023-06-14T06:36:29;9.38;;;4.65;;
17812;SDS011;9030;50.792;8.320;2023-06-14T06:38:56;8.05;;;3.88;;
17812;SDS011;9030;50.792;8.320;2023-06-14T06:41:23;12.52;;;4.10;;
17812;SDS011;9030;50.792;8.320;2023-06-14T06:43:49;7.50;;;4.18;;
17812;SDS011;9030;50.792;8.320;2023-06-14T06:46:16;8.07;;;4.22;;
17812;SDS011;9030;50.792;8.320;2023-06-14T06:48:43;5.35;;;3.42;;
17812;SDS011;9030;50.792;8.320;2023-06-14T06:51:12;7.32;;;3.53;;
17812;SDS011;9030;50.792;8.320;2023-06-14T06:53:39;7.07;;;3.47;;
17812;SDS011;9030;50.792;8.320;2023-06-14T06:56:07;9.85;;;4.15;;
17812;SDS011;9030;50.792;8.320;2023-06-14T06:58:34;6.25;;;3.88;;
17812;SDS011;9030;50.792;8.320;2023-06-14T07:01:01;11.10;;;4.43;;
17812;SDS011;9030;50.792;8.320;2023-06-14T07:03:28;6.32;;;3.50;;
17812;SDS011;9030;50.792;8.320;2023-06-14T07:05:55;9.07;;;3.78;;
17812;SDS011;9030;50.792;8.320;2023-06-14T07:08:23;8.38;;;4.30;;
17812;SDS011;9030;50.792;8.320;2023-06-14T07:10:49;6.22;;;3.60;;
17812;SDS011;9030;50.792;8.320;2023-06-14T07:13:16;7.32;;;3.42;;
17812;SDS011;9030;50.792;8.320;2023-06-14T07:15:43;7.28;;;3.10;;
17812;SDS011;9030;50.792;8.320;2023-06-14T07:18:09;6.75;;;3.63;;
17812;SDS011;9030;50.792;8.320;2023-06-14T07:20:36;5.55;;;3.42;;
17812;SDS011;9030;50.792;8.320;2023-06-14T07:23:05;5.47;;;3.15;;
17812;SDS011;9030;50.792;8.320;2023-06-14T07:25:33;7.07;;;3.78;;
17812;SDS011;9030;50.792;8.320;2023-06-14T07:28:00;6.82;;;3.58;;
17812;SDS011;9030;50.792;8.320;2023-06-14T07:30:27;5.97;;;3.17;;
17812;SDS011;9030;50.792;8.320;2023-06-14T07:32:55;5.78;;;2.85;;
17812;SDS011;9030;50.792;8.320;2023-06-14T07:35:21;8.85;;;2.70;;
17812;SDS011;9030;50.792;8.320;2023-06-14T07:37:48;5.22;;;2.92;;
17812;SDS011;9030;50.792;8.320;2023-06-14T07:40:15;7.57;;;3.42;;
17812;SDS011;9030;50.792;8.320;2023-06-14T07:42:43;10.13;;;3.22;;
17812;SDS011;9030;50.792;8.320;2023-06-14T07:45:11;11.38;;;3.45;;
17812;SDS011;9030;50.792;8.320;2023-06-14T07:47:39;10.45;;;3.13;;
17812;SDS011;9030;50.792;8.320;2023-06-14T07:50:06;5.82;;;3.70;;
17812;SDS011;9030;50.792;8.320;2023-06-14T07:52:33;7.22;;;3.25;;
17812;SDS011;9030;50.792;8.320;2023-06-14T07:55:00;6.45;;;3.40;;
17812;SDS011;9030;50.792;8.320;2023-06-14T07:57:26;6.20;;;3.83;;
17812;SDS011;9030;50.792;8.320;2023-06-14T07:59:54;6.30;;;3.33;;
17812;SDS011;9030;50.792;8.320;2023-06-14T08:02:21;6.95;;;3.05;;
17812;SDS011;9030;50.792;8.320;2023-06-14T08:04:48;10.07;;;3.72;;
17812;SDS011;9030;50.792;8.320;2023-06-14T08:07:14;5.28;;;3.03;;
17812;SDS011;9030;50.792;8.320;2023-06-14T08:09:41;6.88;;;3.10;;
17812;SDS011;9030;50.792;8.320;2023-06-14T08:12:08;8.40;;;3.13;;
17812;SDS011;9030;50.792;8.320;2023-06-14T08:14:35;9.57;;;3.30;;
17812;SDS011;9030;50.792;8.320;2023-06-14T08:17:03;4.72;;;2.70;;
17812;SDS011;9030;50.792;8.320;2023-06-14T08:19:30;5.38;;;2.78;;
17812;SDS011;9030;50.792;8.320;2023-06-14T08:21:57;3.80;;;2.17;;
17812;SDS011;9030;50.792;8.320;2023-06-14T08:24:25;6.43;;;2.50;;
17812;SDS011;9030;50.792;8.320;2023-06-14T08:26:52;4.63;;;2.10;;
17812;SDS011;9030;50.792;8.320;2023-06-14T08:29:18;3.45;;;2.08;;
17812;SDS011;9030;50.792;8.320;2023-06-14T08:31:46;5.82;;;2.08;;
17812;SDS011;9030;50.792;8.320;2023-06-14T08:34:14;3.58;;;2.20;;
17812;SDS011;9030;50.792;8.320;2023-06-14T08:36:41;4.55;;;1.80;;
17812;SDS011;9030;50.792;8.320;2023-06-14T08:39:07;3.13;;;1.75;;
17812;SDS011;9030;50.792;8.320;2023-06-14T08:41:35;4.15;;;2.15;;
17812;SDS011;9030;50.792;8.320;2023-06-14T08:44:02;7.22;;;2.15;;
17812;SDS011;9030;50.792;8.320;2023-06-14T08:46:29;7.15;;;2.53;;
17812;SDS011;9030;50.792;8.320;2023-06-14T08:49:00;2.67;;;1.85;;
17812;SDS011;9030;50.792;8.320;2023-06-14T08:51:31;5.00;;;1.90;;
17812;SDS011;9030;50.792;8.320;2023-06-14T08:54:01;7.38;;;1.65;;
17812;SDS011;9030;50.792;8.320;2023-06-14T08:56:29;13.57;;;1.98;;
17812;SDS011;9030;50.792;8.320;2023-06-14T08:58:57;3.88;;;1.90;;
17812;SDS011;9030;50.792;8.320;2023-06-14T09:01:27;4.38;;;2.03;;
17812;SDS011;9030;50.792;8.320;2023-06-14T09:03:56;4.50;;;2.42;;
17812;SDS011;9030;50.792;8.320;2023-06-14T09:06:23;5.13;;;2.63;;
17812;SDS011;9030;50.792;8.320;2023-06-14T09:08:51;6.47;;;2.53;;
17812;SDS011;9030;50.792;8.320;2023-06-14T09:11:19;6.72;;;2.25;;
17812;SDS011;9030;50.792;8.320;2023-06-14T09:13:46;3.90;;;2.05;;
17812;SDS011;9030;50.792;8.320;2023-06-14T09:16:13;13.63;;;2.60;;
17812;SDS011;9030;50.792;8.320;2023-06-14T09:18:41;14.57;;;3.83;;
17812;SDS011;9030;50.792;8.320;2023-06-14T09:21:10;4.25;;;2.47;;
17812;SDS011;9030;50.792;8.320;2023-06-14T09:23:38;6.75;;;2.72;;
17812;SDS011;9030;50.792;8.320;2023-06-14T09:26:08;5.70;;;2.22;;
17812;SDS011;9030;50.792;8.320;2023-06-14T09:28:35;8.88;;;2.83;;
17812;SDS011;9030;50.792;8.320;2023-06-14T09:31:02;5.68;;;2.78;;
17812;SDS011;9030;50.792;8.320;2023-06-14T09:33:28;6.63;;;2.72;;
17812;SDS011;9030;50.792;8.320;2023-06-14T09:35:57;5.80;;;2.65;;
17812;SDS011;9030;50.792;8.320;2023-06-14T09:38:24;10.20;;;3.20;;
17812;SDS011;9030;50.792;8.320;2023-06-14T09:40:51;7.78;;;3.35;;
17812;SDS011;9030;50.792;8.320;2023-06-14T09:43:19;4.90;;;2.55;;
17812;SDS011;9030;50.792;8.320;2023-06-14T09:45:47;8.82;;;2.92;;
17812;SDS011;9030;50.792;8.320;2023-06-14T09:48:14;8.75;;;3.22;;
17812;SDS011;9030;50.792;8.320;2023-06-14T09:50:43;6.50;;;3.35;;
17812;SDS011;9030;50.792;8.320;2023-06-14T09:53:12;6.00;;;3.13;;
17812;SDS011;9030;50.792;8.320;2023-06-14T09:55:40;9.60;;;3.42;;
17812;SDS011;9030;50.792;8.320;2023-06-14T09:58:08;6.72;;;3.65;;
17812;SDS011;9030;50.792;8.320;2023-06-14T10:00:38;6.60;;;2.95;;
17812;SDS011;9030;50.792;8.320;2023-06-14T10:03:06;11.30;;;4.32;;
17812;SDS011;9030;50.792;8.320;2023-06-14T10:05:39;9.77;;;3.15;;
17812;SDS011;9030;50.792;8.320;2023-06-14T10:08:10;12.23;;;3.70;;
17812;SDS011;9030;50.792;8.320;2023-06-14T10:10:40;11.15;;;3.42;;
17812;SDS011;9030;50.792;8.320;2023-06-14T10:13:08;8.60;;;3.58;;
17812;SDS011;9030;50.792;8.320;2023-06-14T10:15:38;6.80;;;3.78;;
17812;SDS011;9030;50.792;8.320;2023-06-14T10:18:18;7.05;;;4.18;;
17812;SDS011;9030;50.792;8.320;2023-06-14T10:20:51;8.88;;;3.42;;
17812;SDS011;9030;50.792;8.320;2023-06-14T10:23:24;6.25;;;3.13;;
17812;SDS011;9030;50.792;8.320;2023-06-14T10:25:54;9.02;;;2.95;;
17812;SDS011;9030;50.792;8.320;2023-06-14T10:28:22;7.25;;;3.20;;
17812;SDS011;9030;50.792;8.320;2023-06-14T10:31:02;6.85;;;2.92;;
17812;SDS011;9030;50.792;8.320;2023-06-14T10:33:32;10.32;;;3.08;;
17812;SDS011;9030;50.792;8.320;2023-06-14T10:36:07;9.18;;;3.08;;
17812;SDS011;9030;50.792;8.320;2023-06-14T10:38:59;6.53;;;2.60;;
17812;SDS011;9030;50.792;8.320;2023-06-14T10:41:27;9.13;;;3.58;;
17812;SDS011;9030;50.792;8.320;2023-06-14T10:44:10;6.82;;;2.92;;
17812;SDS011;9030;50.792;8.320;2023-06-14T10:46:59;7.45;;;3.20;;
17812;SDS011;9030;50.792;8.320;2023-06-14T10:49:36;4.35;;;2.78;;
17812;SDS011;9030;50.792;8.320;2023-06-14T10:52:07;6.97;;;3.00;;
17812;SDS011;9030;50.792;8.320;2023-06-14T10:54:55;5.20;;;3.33;;
17812;SDS011;9030;50.792;8.320;2023-06-14T10:57:22;8.48;;;3.38;;
17812;SDS011;9030;50.792;8.320;2023-06-14T10:59:49;5.80;;;3.35;;
17812;SDS011;9030;50.792;8.320;2023-06-14T11:02:20;7.95;;;3.22;;
17812;SDS011;9030;50.792;8.320;2023-06-14T11:05:12;6.10;;;2.40;;
17812;SDS011;9030;50.792;8.320;2023-06-14T11:07:43;8.65;;;2.72;;
17812;SDS011;9030;50.792;8.320;2023-06-14T11:10:20;7.22;;;3.25;;
17812;SDS011;9030;50.792;8.320;2023-06-14T11:12:58;7.85;;;3.20;;
17812;SDS011;9030;50.792;8.320;2023-06-14T11:15:27;5.15;;;3.53;;
17812;SDS011;9030;50.792;8.320;2023-06-14T11:17:56;5.07;;;3.00;;
17812;SDS011;9030;50.792;8.320;2023-06-14T11:20:25;5.53;;;3.20;;
17812;SDS011;9030;50.792;8.320;2023-06-14T11:22:53;5.22;;;3.22;;
17812;SDS011;9030;50.792;8.320;2023-06-14T11:25:20;4.13;;;3.00;;
17812;SDS011;9030;50.792;8.320;2023-06-14T11:27:48;20.42;;;3.85;;
17812;SDS011;9030;50.792;8.320;2023-06-14T11:30:15;6.68;;;3.17;;
17812;SDS011;9030;50.792;8.320;2023-06-14T11:32:45;4.75;;;2.60;;
17812;SDS011;9030;50.792;8.320;2023-06-14T11:35:14;14.15;;;4.30;;
17812;SDS011;9030;50.792;8.320;2023-06-14T11:37:41;6.10;;;3.38;;
17812;SDS011;9030;50.792;8.320;2023-06-14T11:40:09;5.93;;;3.28;;
17812;SDS011;9030;50.792;8.320;2023-06-14T11:42:38;5.38;;;3.03;;
17812;SDS011;9030;50.792;8.320;2023-06-14T11:45:07;5.35;;;3.08;;
17812;SDS011;9030;50.792;8.320;2023-06-14T11:47:35;7.50;;;3.03;;
17812;SDS011;9030;50.792;8.320;2023-06-14T11:50:03;7.28;;;3.22;;
17812;SDS011;9030;50.792;8.320;2023-06-14T11:52:32;7.97;;;3.35;;
17812;SDS011;9030;50.792;8.320;2023-06-14T11:54:59;5.82;;;2.92;;
17812;SDS011;9030;50.792;8.320;2023-06-14T11:57:29;5.38;;;3.13;;
17812;SDS011;9030;50.792;8.320;2023-06-14T11:59:56;8.20;;;2.88;;
17812;SDS011;9030;50.792;8.320;2023-06-14T12:02:23;8.00;;;3.00;;
17812;SDS011;9030;50.792;8.320;2023-06-14T12:04:52;6.03;;;3.20;;
17812;SDS011;9030;50.792;8.320;2023-06-14T12:07:19;8.32;;;3.35;;
17812;SDS011;9030;50.792;8.320;2023-06-14T12:10:05;7.40;;;3.33;;
17812;SDS011;9030;50.792;8.320;2023-06-14T12:12:35;6.57;;;2.97;;
17812;SDS011;9030;50.792;8.320;2023-06-14T12:15:03;5.70;;;2.95;;
17812;SDS011;9030;50.792;8.320;2023-06-14T12:17:31;8.52;;;2.70;;
17812;SDS011;9030;50.792;8.320;2023-06-14T12:19:59;7.93;;;3.15;;
17812;SDS011;9030;50.792;8.320;2023-06-14T12:22:34;6.78;;;2.85;;
17812;SDS011;9030;50.792;8.320;2023-06-14T12:25:01;3.33;;;2.40;;
17812;SDS011;9030;50.792;8.320;2023-06-14T12:27:29;5.50;;;3.00;;
17812;SDS011;9030;50.792;8.320;2023-06-14T12:29:59;6.85;;;2.75;;
17812;SDS011;9030;50.792;8.320;2023-06-14T12:32:27;5.78;;;3.25;;
17812;SDS011;9030;50.792;8.320;2023-06-14T12:34:54;7.88;;;2.88;;
17812;SDS011;9030;50.792;8.320;2023-06-14T12:37:21;6.32;;;3.13;;
17812;SDS011;9030;50.792;8.320;2023-06-14T12:39:48;6.10;;;3.53;;
17812;SDS011;9030;50.792;8.320;2023-06-14T12:42:15;9.57;;;3.65;;
17812;SDS011;9030;50.792;8.320;2023-06-14T12:44:44;11.07;;;3.10;;
17812;SDS011;9030;50.792;8.320;2023-06-14T12:47:10;7.10;;;3.33;;
17812;SDS011;9030;50.792;8.320;2023-06-14T12:49:38;6.78;;;3.08;;
17812;SDS011;9030;50.792;8.320;2023-06-14T12:52:07;5.72;;;3.33;;
17812;SDS011;9030;50.792;8.320;2023-06-14T12:54:34;6.13;;;2.65;;
17812;SDS011;9030;50.792;8.320;2023-06-14T12:57:01;5.15;;;3.00;;
17812;SDS011;9030;50.792;8.320;2023-06-14T12:59:28;7.55;;;4.05;;
17812;SDS011;9030;50.792;8.320;2023-06-14T13:01:59;5.03;;;3.67;;
17812;SDS011;9030;50.792;8.320;2023-06-14T13:04:35;5.70;;;3.35;;
17812;SDS011;9030;50.792;8.320;2023-06-14T13:07:02;6.95;;;3.47;;
17812;SDS011;9030;50.792;8.320;2023-06-14T13:09:29;5.53;;;3.00;;
17812;SDS011;9030;50.792;8.320;2023-06-14T13:11:56;6.72;;;3.75;;
17812;SDS011;9030;50.792;8.320;2023-06-14T13:14:22;6.93;;;3.60;;
17812;SDS011;9030;50.792;8.320;2023-06-14T13:16:49;5.85;;;3.35;;
17812;SDS011;9030;50.792;8.320;2023-06-14T13:19:17;5.90;;;3.15;;
17812;SDS011;9030;50.792;8.320;2023-06-14T13:21:44;9.10;;;3.53;;
17812;SDS011;9030;50.792;8.320;2023-06-14T13:24:10;5.35;;;2.60;;
17812;SDS011;9030;50.792;8.320;2023-06-14T13:26:37;5.57;;;3.08;;
17812;SDS011;9030;50.792;8.320;2023-06-14T13:29:04;7.88;;;3.13;;
17812;SDS011;9030;50.792;8.320;2023-06-14T13:31:30;8.38;;;2.97;;
17812;SDS011;9030;50.792;8.320;2023-06-14T13:33:57;5.30;;;3.20;;
17812;SDS011;9030;50.792;8.320;2023-06-14T13:36:25;6.57;;;2.92;;
17812;SDS011;9030;50.792;8.320;2023-06-14T13:38:52;7.47;;;3.50;;
17812;SDS011;9030;50.792;8.320;2023-06-14T13:41:20;7.82;;;3.55;;
17812;SDS011;9030;50.792;8.320;2023-06-14T13:43:46;5.57;;;3.42;;
17812;SDS011;9030;50.792;8.320;2023-06-14T13:46:13;4.75;;;2.85;;
17812;SDS011;9030;50.792;8.320;2023-06-14T13:48:40;7.72;;;4.10;;
17812;SDS011;9030;50.792;8.320;2023-06-14T13:51:06;5.68;;;3.05;;
17812;SDS011;9030;50.792;8.320;2023-06-14T13:53:34;3.47;;;2.78;;
17812;SDS011;9030;50.792;8.320;2023-06-14T13:56:01;7.38;;;3.22;;
17812;SDS011;9030;50.792;8.320;2023-06-14T13:58:27;7.78;;;3.35;;
17812;SDS011;9030;50.792;8.320;2023-06-14T14:00:54;6.35;;;2.75;;
17812;SDS011;9030;50.792;8.320;2023-06-14T14:03:21;6.97;;;3.70;;
17812;SDS011;9030;50.792;8.320;2023-06-14T14:05:49;5.75;;;3.17;;
17812;SDS011;9030;50.792;8.320;2023-06-14T14:08:15;4.05;;;2.75;;
17812;SDS011;9030;50.792;8.320;2023-06-14T14:10:43;10.93;;;3.38;;
17812;SDS011;9030;50.792;8.320;2023-06-14T14:13:10;9.48;;;4.38;;
17812;SDS011;9030;50.792;8.320;2023-06-14T14:15:37;7.57;;;3.40;;
17812;SDS011;9030;50.792;8.320;2023-06-14T14:18:04;9.52;;;2.78;;
17812;SDS011;9030;50.792;8.320;2023-06-14T14:20:31;10.50;;;3.45;;
17812;SDS011;9030;50.792;8.320;2023-06-14T14:22:58;4.57;;;3.15;;
17812;SDS011;9030;50.792;8.320;2023-06-14T14:25:24;8.38;;;3.80;;
17812;SDS011;9030;50.792;8.320;2023-06-14T14:27:52;7.38;;;3.40;;
17812;SDS011;9030;50.792;8.320;2023-06-14T14:30:19;5.03;;;2.95;;
17812;SDS011;9030;50.792;8.320;2023-06-14T14:32:48;4.57;;;2.65;;
17812;SDS011;9030;50.792;8.320;2023-06-14T14:35:16;5.95;;;3.08;;
17812;SDS011;9030;50.792;8.320;2023-06-14T14:37:42;4.93;;;2.92;;
17812;SDS011;9030;50.792;8.320;2023-06-14T14:40:09;4.68;;;3.17;;
17812;SDS011;9030;50.792;8.320;2023-06-14T14:42:37;5.63;;;3.47;;
17812;SDS011;9030;50.792;8.320;2023-06-14T14:45:06;7.50;;;3.80;;
17812;SDS011;9030;50.792;8.320;2023-06-14T14:47:33;6.60;;;3.42;;
17812;SDS011;9030;50.792;8.320;2023-06-14T14:49:59;5.22;;;3.03;;
17812;SDS011;9030;50.792;8.320;2023-06-14T14:52:26;6.20;;;2.83;;
17812;SDS011;9030;50.792;8.320;2023-06-14T14:54:53;7.68;;;3.17;;
17812;SDS011;9030;50.792;8.320;2023-06-14T14:57:20;5.80;;;2.92;;
17812;SDS011;9030;50.792;8.320;2023-06-14T14:59:47;8.93;;;3.15;;
17812;SDS011;9030;50.792;8.320;2023-06-14T15:02:15;6.80;;;3.38;;